sensor_id;sensor_type;location;lat;lon;timestamp;pressure;altitude;pressure_sealevel;temperature;humidity
34328;BME280;20588;48.840;10.064;2023-02-11T00:01:40;98444.03;;;-5.38;nan
34328;BME280;20588;48.840;10.064;2023-02-11T00:04:06;98450.75;;;-5.39;nan
34328;BME280;20588;48.840;10.064;2023-02-11T00:06:34;98453.38;;;-5.42;nan
34328;BME280;20588;48.840;10.064;2023-02-11T00:09:00;98445.13;;;-5.44;nan
34328;BME280;20588;48.840;10.064;2023-02-11T00:11:27;98433.38;;;-5.43;nan
34328;BME280;20588;48.840;10.064;2023-02-11T00:13:56;98435.88;;;-5.43;nan
34328;BME280;20588;48.840;10.064;2023-02-11T00:16:22;98444.88;;;-5.38;nan
34328;BME280;20588;48.840;10.064;2023-02-11T00:18:49;98449.00;;;-5.37;nan
34328;BME280;20588;48.840;10.064;2023-02-11T00:21:21;98441.59;;;-5.40;nan
34328;BME280;20588;48.840;10.064;2023-02-11T00:23:48;98451.69;;;-5.41;nan
34328;BME280;20588;48.840;10.064;2023-02-11T00:26:19;98441.84;;;-5.46;nan
34328;BME280;20588;48.840;10.064;2023-02-11T00:28:47;98441.84;;;-5.46;nan
34328;BME280;20588;48.840;10.064;2023-02-11T00:31:14;98438.53;;;-5.46;nan
34328;BME280;20588;48.840;10.064;2023-02-11T00:33:40;98438.53;;;-5.46;nan
34328;BME280;20588;48.840;10.064;2023-02-11T00:36:09;98426.88;;;-5.47;nan
34328;BME280;20588;48.840;10.064;2023-02-11T00:38:37;98418.59;;;-5.49;nan
34328;BME280;20588;48.840;10.064;2023-02-11T00:41:03;98422.13;;;-5.53;nan
34328;BME280;20588;48.840;10.064;2023-02-11T00:43:29;98422.00;;;-5.50;nan
34328;BME280;20588;48.840;10.064;2023-02-11T00:45:55;98421.22;;;-5.53;nan
34328;BME280;20588;48.840;10.064;2023-02-11T00:48:21;98422.19;;;-5.55;nan
34328;BME280;20588;48.840;10.064;2023-02-11T00:50:47;98424.69;;;-5.55;nan
34328;BME280;20588;48.840;10.064;2023-02-11T00:53:13;98421.38;;;-5.56;nan
34328;BME280;20588;48.840;10.064;2023-02-11T00:55:39;98415.69;;;-5.59;nan
34328;BME280;20588;48.840;10.064;2023-02-11T00:58:05;98409.91;;;-5.61;nan
34328;BME280;20588;48.840;10.064;2023-02-11T01:00:31;98404.06;;;-5.62;nan
34328;BME280;20588;48.840;10.064;2023-02-11T01:02:57;98412.41;;;-5.61;nan
34328;BME280;20588;48.840;10.064;2023-02-11T01:05:23;98408.28;;;-5.62;nan
34328;BME280;20588;48.840;10.064;2023-02-11T01:07:49;98405.84;;;-5.64;nan
34328;BME280;20588;48.840;10.064;2023-02-11T01:10:16;98398.47;;;-5.67;nan
34328;BME280;20588;48.840;10.064;2023-02-11T01:12:42;98401.03;;;-5.68;nan
34328;BME280;20588;48.840;10.064;2023-02-11T01:15:10;98388.50;;;-5.68;nan
34328;BME280;20588;48.840;10.064;2023-02-11T01:17:36;98388.50;;;-5.68;nan
34328;BME280;20588;48.840;10.064;2023-02-11T01:20:07;98378.53;;;-5.70;nan
34328;BME280;20588;48.840;10.064;2023-02-11T01:22:33;98368.53;;;-5.70;nan
34328;BME280;20588;48.840;10.064;2023-02-11T01:25:05;98358.50;;;-5.70;nan
34328;BME280;20588;48.840;10.064;2023-02-11T01:27:31;98357.75;;;-5.72;nan
34328;BME280;20588;48.840;10.064;2023-02-11T01:29:57;98358.56;;;-5.71;nan
34328;BME280;20588;48.840;10.064;2023-02-11T01:32:23;98350.09;;;-5.69;nan
34328;BME280;20588;48.840;10.064;2023-02-11T01:34:49;98342.72;;;-5.72;nan
34328;BME280;20588;48.840;10.064;2023-02-11T01:37:16;98343.59;;;-5.73;nan
34328;BME280;20588;48.840;10.064;2023-02-11T01:39:42;98340.28;;;-5.73;nan
34328;BME280;20588;48.840;10.064;2023-02-11T01:42:14;98339.44;;;-5.74;nan
34328;BME280;20588;48.840;10.064;2023-02-11T01:44:40;98341.22;;;-5.76;nan
34328;BME280;20588;48.840;10.064;2023-02-11T01:47:06;98344.59;;;-5.77;nan
34328;BME280;20588;48.840;10.064;2023-02-11T01:49:38;98351.31;;;-5.77;nan
34328;BME280;20588;48.840;10.064;2023-02-11T01:55:01;98358.00;;;-5.78;nan
34328;BME280;20588;48.840;10.064;2023-02-11T01:57:58;98363.97;;;-5.80;nan
34328;BME280;20588;48.840;10.064;2023-02-11T02:00:33;98366.56;;;-5.82;nan
34328;BME280;20588;48.840;10.064;2023-02-11T02:05:37;98363.97;;;-5.80;nan
34328;BME280;20588;48.840;10.064;2023-02-11T02:08:10;98361.47;;;-5.80;nan
34328;BME280;20588;48.840;10.064;2023-02-11T02:10:42;98356.38;;;-5.79;nan
34328;BME280;20588;48.840;10.064;2023-02-11T02:13:09;98360.50;;;-5.78;nan
34328;BME280;20588;48.840;10.064;2023-02-11T02:15:43;98361.25;;;-5.76;nan
34328;BME280;20588;48.840;10.064;2023-02-11T02:18:22;98364.50;;;-5.74;nan
34328;BME280;20588;48.840;10.064;2023-02-11T02:21:10;98362.69;;;-5.70;nan
34328;BME280;20588;48.840;10.064;2023-02-11T02:32:42;98339.56;;;-5.57;nan
34328;BME280;20588;48.840;10.064;2023-02-11T02:41:07;98320.06;;;-5.50;nan
34328;BME280;20588;48.840;10.064;2023-02-11T02:43:36;98317.34;;;-5.45;nan
34328;BME280;20588;48.840;10.064;2023-02-11T02:48:42;98300.94;;;-5.34;nan
34328;BME280;20588;48.840;10.064;2023-02-11T03:04:51;98289.47;;;-4.85;nan
34328;BME280;20588;48.840;10.064;2023-02-11T03:07:28;98289.81;;;-4.74;nan
34328;BME280;20588;48.840;10.064;2023-02-11T03:10:20;98298.28;;;-4.60;nan
34328;BME280;20588;48.840;10.064;2023-02-11T03:12:48;98285.09;;;-4.46;nan
34328;BME280;20588;48.840;10.064;2023-02-11T03:15:16;98280.66;;;-4.41;nan
34328;BME280;20588;48.840;10.064;2023-02-11T03:17:47;98280.06;;;-4.29;nan
34328;BME280;20588;48.840;10.064;2023-02-11T03:20:17;98272.38;;;-4.26;nan
34328;BME280;20588;48.840;10.064;2023-02-11T03:22:57;98266.81;;;-4.16;nan
34328;BME280;20588;48.840;10.064;2023-02-11T03:25:30;98278.91;;;-4.07;nan
34328;BME280;20588;48.840;10.064;2023-02-11T03:28:13;98276.19;;;-4.02;nan
34328;BME280;20588;48.840;10.064;2023-02-11T03:30:55;98280.31;;;-4.01;nan
34328;BME280;20588;48.840;10.064;2023-02-11T03:33:36;98292.16;;;-4.03;nan
34328;BME280;20588;48.840;10.064;2023-02-11T03:36:11;98292.88;;;-4.01;nan
34328;BME280;20588;48.840;10.064;2023-02-11T03:38:50;98301.06;;;-3.98;nan
34328;BME280;20588;48.840;10.064;2023-02-11T03:41:21;98308.47;;;-3.95;nan
34328;BME280;20588;48.840;10.064;2023-02-11T03:43:54;98306.03;;;-3.96;nan
34328;BME280;20588;48.840;10.064;2023-02-11T03:46:29;98308.59;;;-3.98;nan
34328;BME280;20588;48.840;10.064;2023-02-11T03:49:00;98311.13;;;-3.98;nan
34328;BME280;20588;48.840;10.064;2023-02-11T03:51:28;98309.44;;;-3.97;nan
34328;BME280;20588;48.840;10.064;2023-02-11T03:53:57;98309.22;;;-3.93;nan
34328;BME280;20588;48.840;10.064;2023-02-11T03:56:27;98308.31;;;-3.92;nan
34328;BME280;20588;48.840;10.064;2023-02-11T03:58:54;98304.81;;;-3.89;nan
34328;BME280;20588;48.840;10.064;2023-02-11T04:01:20;98314.63;;;-3.85;nan
34328;BME280;20588;48.840;10.064;2023-02-11T04:03:46;98320.34;;;-3.81;nan
34328;BME280;20588;48.840;10.064;2023-02-11T04:06:13;98310.03;;;-3.77;nan
34328;BME280;20588;48.840;10.064;2023-02-11T04:08:39;98306.88;;;-3.80;nan
34328;BME280;20588;48.840;10.064;2023-02-11T04:11:05;98306.41;;;-3.71;nan
34328;BME280;20588;48.840;10.064;2023-02-11T04:13:31;98300.09;;;-3.62;nan
34328;BME280;20588;48.840;10.064;2023-02-11T04:15:57;98298.25;;;-3.43;nan
34328;BME280;20588;48.840;10.064;2023-02-11T04:18:23;98311.84;;;-3.30;nan
34328;BME280;20588;48.840;10.064;2023-02-11T04:20:50;98302.41;;;-3.27;nan
34328;BME280;20588;48.840;10.064;2023-02-11T04:23:16;98303.06;;;-3.23;nan
34328;BME280;20588;48.840;10.064;2023-02-11T04:25:42;98301.91;;;-3.18;nan
34328;BME280;20588;48.840;10.064;2023-02-11T04:28:08;98303.16;;;-3.09;nan
34328;BME280;20588;48.840;10.064;2023-02-11T04:30:34;98295.19;;;-3.02;nan
34328;BME280;20588;48.840;10.064;2023-02-11T04:33:00;98295.66;;;-2.95;nan
34328;BME280;20588;48.840;10.064;2023-02-11T04:35:26;98305.34;;;-2.88;nan
34328;BME280;20588;48.840;10.064;2023-02-11T04:37:52;98303.44;;;-2.84;nan
34328;BME280;20588;48.840;10.064;2023-02-11T04:40:18;98300.59;;;-2.78;nan
34328;BME280;20588;48.840;10.064;2023-02-11T04:42:44;98293.44;;;-2.70;nan
34328;BME280;20588;48.840;10.064;2023-02-11T04:45:10;98291.91;;;-2.43;nan
34328;BME280;20588;48.840;10.064;2023-02-11T04:47:36;98289.78;;;-2.35;nan
34328;BME280;20588;48.840;10.064;2023-02-11T04:50:03;98281.78;;;-2.28;nan
34328;BME280;20588;48.840;10.064;2023-02-11T04:52:29;98283.03;;;-2.21;nan
34328;BME280;20588;48.840;10.064;2023-02-11T04:54:55;98281.28;;;-2.05;nan
34328;BME280;20588;48.840;10.064;2023-02-11T04:57:21;98273.00;;;-1.93;nan
34328;BME280;20588;48.840;10.064;2023-02-11T04:59:47;98269.41;;;-1.89;nan
34328;BME280;20588;48.840;10.064;2023-02-11T05:02:13;98275.06;;;-1.85;nan
34328;BME280;20588;48.840;10.064;2023-02-11T05:04:39;98279.41;;;-1.73;nan
34328;BME280;20588;48.840;10.064;2023-02-11T05:07:06;98291.91;;;-1.71;nan
34328;BME280;20588;48.840;10.064;2023-02-11T05:09:32;98286.69;;;-1.68;nan
34328;BME280;20588;48.840;10.064;2023-02-11T05:11:58;98280.81;;;-1.69;nan
34328;BME280;20588;48.840;10.064;2023-02-11T05:14:24;98270.66;;;-1.67;nan
34328;BME280;20588;48.840;10.064;2023-02-11T05:16:50;98257.13;;;-1.66;nan
34328;BME280;20588;48.840;10.064;2023-02-11T05:19:16;98249.56;;;-1.66;nan
34328;BME280;20588;48.840;10.064;2023-02-11T05:21:42;98251.28;;;-1.67;nan
34328;BME280;20588;48.840;10.064;2023-02-11T05:24:08;98248.81;;;-1.54;nan
34328;BME280;20588;48.840;10.064;2023-02-11T05:26:34;98244.16;;;-1.60;nan
34328;BME280;20588;48.840;10.064;2023-02-11T05:29:00;98247.59;;;-1.61;nan
34328;BME280;20588;48.840;10.064;2023-02-11T05:31:26;98248.50;;;-1.62;nan
34328;BME280;20588;48.840;10.064;2023-02-11T05:33:52;98253.44;;;-1.61;nan
34328;BME280;20588;48.840;10.064;2023-02-11T05:36:18;98261.09;;;-1.62;nan
34328;BME280;20588;48.840;10.064;2023-02-11T05:38:44;98258.59;;;-1.62;nan
34328;BME280;20588;48.840;10.064;2023-02-11T05:41:11;98251.09;;;-1.64;nan
34328;BME280;20588;48.840;10.064;2023-02-11T05:43:37;98256.06;;;-1.62;nan
34328;BME280;20588;48.840;10.064;2023-02-11T05:46:04;98254.22;;;-1.60;nan
34328;BME280;20588;48.840;10.064;2023-02-11T05:48:30;98244.78;;;-1.57;nan
34328;BME280;20588;48.840;10.064;2023-02-11T05:50:56;98252.91;;;-1.52;nan
34328;BME280;20588;48.840;10.064;2023-02-11T05:53:23;98240.72;;;-1.45;nan
34328;BME280;20588;48.840;10.064;2023-02-11T05:55:49;98230.34;;;-1.41;nan
34328;BME280;20588;48.840;10.064;2023-02-11T05:58:15;98232.78;;;-1.39;nan
34328;BME280;20588;48.840;10.064;2023-02-11T06:00:41;98230.25;;;-1.39;nan
34328;BME280;20588;48.840;10.064;2023-02-11T06:03:07;98226.72;;;-1.37;nan
34328;BME280;20588;48.840;10.064;2023-02-11T06:05:33;98228.16;;;-1.33;nan
34328;BME280;20588;48.840;10.064;2023-02-11T06:07:59;98226.44;;;-1.32;nan
34328;BME280;20588;48.840;10.064;2023-02-11T06:10:25;98233.72;;;-1.28;nan
34328;BME280;20588;48.840;10.064;2023-02-11T06:12:51;98256.06;;;-1.22;nan
34328;BME280;20588;48.840;10.064;2023-02-11T06:15:17;98250.66;;;-1.16;nan
34328;BME280;20588;48.840;10.064;2023-02-11T06:17:43;98254.00;;;-1.15;nan
34328;BME280;20588;48.840;10.064;2023-02-11T06:20:10;98249.63;;;-1.13;nan
34328;BME280;20588;48.840;10.064;2023-02-11T06:22:37;98252.97;;;-1.13;nan
34328;BME280;20588;48.840;10.064;2023-02-11T06:25:03;98252.88;;;-1.11;nan
34328;BME280;20588;48.840;10.064;2023-02-11T06:27:30;98249.25;;;-1.07;nan
34328;BME280;20588;48.840;10.064;2023-02-11T06:29:56;98249.06;;;-1.04;nan
34328;BME280;20588;48.840;10.064;2023-02-11T06:32:22;98244.84;;;-1.04;nan
34328;BME280;20588;48.840;10.064;2023-02-11T06:34:48;98242.13;;;-1.01;nan
34328;BME280;20588;48.840;10.064;2023-02-11T06:37:14;98247.78;;;-0.97;nan
34328;BME280;20588;48.840;10.064;2023-02-11T06:39:40;98240.81;;;-0.94;nan
34328;BME280;20588;48.840;10.064;2023-02-11T06:42:06;98251.53;;;-0.90;nan
34328;BME280;20588;48.840;10.064;2023-02-11T06:44:32;98255.09;;;-0.93;nan
34328;BME280;20588;48.840;10.064;2023-02-11T06:46:58;98259.13;;;-0.90;nan
34328;BME280;20588;48.840;10.064;2023-02-11T06:49:24;98258.09;;;-0.88;nan
34328;BME280;20588;48.840;10.064;2023-02-11T06:51:50;98252.41;;;-0.65;nan
34328;BME280;20588;48.840;10.064;2023-02-11T06:54:17;98249.59;;;-0.60;nan
34328;BME280;20588;48.840;10.064;2023-02-11T06:56:43;98245.97;;;-0.69;nan
34328;BME280;20588;48.840;10.064;2023-02-11T06:59:15;98250.81;;;-0.66;nan
34328;BME280;20588;48.840;10.064;2023-02-11T07:01:41;98246.38;;;-0.62;nan
34328;BME280;20588;48.840;10.064;2023-02-11T07:04:07;98246.88;;;-0.57;nan
34328;BME280;20588;48.840;10.064;2023-02-11T07:06:33;98252.97;;;-0.47;nan
34328;BME280;20588;48.840;10.064;2023-02-11T07:09:02;98251.66;;;-0.40;nan
34328;BME280;20588;48.840;10.064;2023-02-11T07:11:29;98251.06;;;-0.31;nan
34328;BME280;20588;48.840;10.064;2023-02-11T07:14:00;98252.06;;;-0.21;nan
34328;BME280;20588;48.840;10.064;2023-02-11T07:16:29;98252.41;;;-0.13;nan
34328;BME280;20588;48.840;10.064;2023-02-11T07:18:55;98257.97;;;0.05;nan
34328;BME280;20588;48.840;10.064;2023-02-11T07:21:22;98250.16;;;0.20;nan
34328;BME280;20588;48.840;10.064;2023-02-11T07:23:49;98242.56;;;0.33;nan
34328;BME280;20588;48.840;10.064;2023-02-11T07:26:17;98237.47;;;0.45;nan
34328;BME280;20588;48.840;10.064;2023-02-11T07:28:44;98242.69;;;0.55;nan
34328;BME280;20588;48.840;10.064;2023-02-11T07:31:13;98237.59;;;0.67;nan
34328;BME280;20588;48.840;10.064;2023-02-11T07:33:40;98236.19;;;0.76;nan
34328;BME280;20588;48.840;10.064;2023-02-11T07:36:07;98251.53;;;0.85;nan
34328;BME280;20588;48.840;10.064;2023-02-11T07:38:35;98248.34;;;0.94;nan
34328;BME280;20588;48.840;10.064;2023-02-11T07:41:03;98256.00;;;1.05;nan
34328;BME280;20588;48.840;10.064;2023-02-11T07:43:31;98245.72;;;1.19;nan
34328;BME280;20588;48.840;10.064;2023-02-11T07:45:57;98242.84;;;1.24;nan
34328;BME280;20588;48.840;10.064;2023-02-11T07:48:24;98243.41;;;1.27;nan
34328;BME280;20588;48.840;10.064;2023-02-11T07:50:50;98244.63;;;1.34;nan
34328;BME280;20588;48.840;10.064;2023-02-11T07:53:16;98250.91;;;1.52;nan
34328;BME280;20588;48.840;10.064;2023-02-11T07:55:43;98248.81;;;1.23;nan
34328;BME280;20588;48.840;10.064;2023-02-11T07:58:09;98240.09;;;1.27;nan
34328;BME280;20588;48.840;10.064;2023-02-11T08:00:35;98247.25;;;1.33;nan
34328;BME280;20588;48.840;10.064;2023-02-11T08:03:01;98250.75;;;1.43;nan
34328;BME280;20588;48.840;10.064;2023-02-11T08:05:27;98253.56;;;1.51;nan
34328;BME280;20588;48.840;10.064;2023-02-11T08:07:54;98245.66;;;1.66;nan
34328;BME280;20588;48.840;10.064;2023-02-11T08:10:20;98259.25;;;1.76;nan
34328;BME280;20588;48.840;10.064;2023-02-11T08:12:46;98257.69;;;1.98;nan
34328;BME280;20588;48.840;10.064;2023-02-11T08:15:13;98259.56;;;2.29;nan
34328;BME280;20588;48.840;10.064;2023-02-11T08:17:39;98260.22;;;2.64;nan
34328;BME280;20588;48.840;10.064;2023-02-11T08:20:05;98246.19;;;3.02;nan
34328;BME280;20588;48.840;10.064;2023-02-11T08:22:33;98260.81;;;3.41;nan
34328;BME280;20588;48.840;10.064;2023-02-11T08:24:59;98256.56;;;3.62;nan
34328;BME280;20588;48.840;10.064;2023-02-11T08:27:25;98254.44;;;3.88;nan
34328;BME280;20588;48.840;10.064;2023-02-11T08:29:53;98248.53;;;4.08;nan
34328;BME280;20588;48.840;10.064;2023-02-11T08:32:19;98253.84;;;4.65;nan
34328;BME280;20588;48.840;10.064;2023-02-11T08:34:50;98251.25;;;5.62;nan
34328;BME280;20588;48.840;10.064;2023-02-11T08:37:17;98255.06;;;6.60;nan
34328;BME280;20588;48.840;10.064;2023-02-11T08:39:43;98255.09;;;7.22;nan
34328;BME280;20588;48.840;10.064;2023-02-11T08:42:09;98264.63;;;7.90;nan
34328;BME280;20588;48.840;10.064;2023-02-11T08:44:35;98264.03;;;7.96;nan
34328;BME280;20588;48.840;10.064;2023-02-11T08:47:01;98262.34;;;7.62;nan
34328;BME280;20588;48.840;10.064;2023-02-11T08:49:27;98256.69;;;7.23;nan
34328;BME280;20588;48.840;10.064;2023-02-11T08:51:55;98252.53;;;7.22;nan
34328;BME280;20588;48.840;10.064;2023-02-11T08:54:24;98244.44;;;7.87;nan
34328;BME280;20588;48.840;10.064;2023-02-11T08:56:51;98232.47;;;8.55;nan
34328;BME280;20588;48.840;10.064;2023-02-11T08:59:17;98223.53;;;8.67;nan
34328;BME280;20588;48.840;10.064;2023-02-11T09:01:43;98226.88;;;8.59;nan
34328;BME280;20588;48.840;10.064;2023-02-11T09:04:09;98235.34;;;8.52;nan
34328;BME280;20588;48.840;10.064;2023-02-11T09:06:36;98237.66;;;8.29;nan
34328;BME280;20588;48.840;10.064;2023-02-11T09:09:02;98235.75;;;8.31;nan
34328;BME280;20588;48.840;10.064;2023-02-11T09:11:31;98228.97;;;8.64;nan
34328;BME280;20588;48.840;10.064;2023-02-11T09:13:58;98212.16;;;11.30;nan
34328;BME280;20588;48.840;10.064;2023-02-11T09:16:29;98197.19;;;14.32;nan
34328;BME280;20588;48.840;10.064;2023-02-11T09:18:59;98193.72;;;15.98;nan
34328;BME280;20588;48.840;10.064;2023-02-11T09:21:26;98208.53;;;15.97;nan
34328;BME280;20588;48.840;10.064;2023-02-11T09:23:53;98203.72;;;16.07;nan
34328;BME280;20588;48.840;10.064;2023-02-11T09:26:24;98198.88;;;16.37;nan
34328;BME280;20588;48.840;10.064;2023-02-11T09:28:51;98208.34;;;15.53;nan
34328;BME280;20588;48.840;10.064;2023-02-11T09:31:20;98206.66;;;15.07;nan
34328;BME280;20588;48.840;10.064;2023-02-11T09:33:48;98211.22;;;13.89;nan
34328;BME280;20588;48.840;10.064;2023-02-11T09:36:18;98213.72;;;12.77;nan
34328;BME280;20588;48.840;10.064;2023-02-11T09:38:45;98206.97;;;11.89;nan
34328;BME280;20588;48.840;10.064;2023-02-11T09:44:20;98223.50;;;10.51;nan
34328;BME280;20588;48.840;10.064;2023-02-11T09:46:59;98223.91;;;10.32;nan
34328;BME280;20588;48.840;10.064;2023-02-11T09:54:55;98228.97;;;10.56;nan
34328;BME280;20588;48.840;10.064;2023-02-11T09:57:22;98224.81;;;12.28;nan
34328;BME280;20588;48.840;10.064;2023-02-11T09:59:51;98226.25;;;13.31;nan
34328;BME280;20588;48.840;10.064;2023-02-11T10:05:28;98235.13;;;13.64;nan
34328;BME280;20588;48.840;10.064;2023-02-11T10:10:51;98244.81;;;12.69;nan
34328;BME280;20588;48.840;10.064;2023-02-11T10:13:42;98243.63;;;12.51;nan
34328;BME280;20588;48.840;10.064;2023-02-11T10:22:17;98249.31;;;11.35;nan
34328;BME280;20588;48.840;10.064;2023-02-11T10:25:16;98264.38;;;11.24;nan
34328;BME280;20588;48.840;10.064;2023-02-11T10:27:43;98255.31;;;11.95;nan
34328;BME280;20588;48.840;10.064;2023-02-11T10:30:25;98254.88;;;13.71;nan
34328;BME280;20588;48.840;10.064;2023-02-11T10:33:17;98246.63;;;16.36;nan
34328;BME280;20588;48.840;10.064;2023-02-11T10:35:45;98230.22;;;18.35;nan
34328;BME280;20588;48.840;10.064;2023-02-11T10:38:11;98228.19;;;20.15;nan
34328;BME280;20588;48.840;10.064;2023-02-11T10:40:37;98221.78;;;21.86;nan
34328;BME280;20588;48.840;10.064;2023-02-11T10:43:07;98216.03;;;22.81;nan
34328;BME280;20588;48.840;10.064;2023-02-11T10:45:44;98201.88;;;23.62;nan
34328;BME280;20588;48.840;10.064;2023-02-11T10:48:37;98200.25;;;24.29;nan
34328;BME280;20588;48.840;10.064;2023-02-11T10:51:24;98199.31;;;25.52;nan
34328;BME280;20588;48.840;10.064;2023-02-11T10:56:30;98195.59;;;26.13;nan
34328;BME280;20588;48.840;10.064;2023-02-11T11:01:47;98200.91;;;25.63;nan
34328;BME280;20588;48.840;10.064;2023-02-11T11:07:13;98187.50;;;23.43;nan
34328;BME280;20588;48.840;10.064;2023-02-11T11:09:47;98187.81;;;22.72;nan
34328;BME280;20588;48.840;10.064;2023-02-11T11:17:36;98189.44;;;22.73;nan
34328;BME280;20588;48.840;10.064;2023-02-11T11:20:23;98176.09;;;23.28;nan
34328;BME280;20588;48.840;10.064;2023-02-11T11:22:51;98183.94;;;22.53;nan
34328;BME280;20588;48.840;10.064;2023-02-11T11:25:24;98172.66;;;23.00;nan
34328;BME280;20588;48.840;10.064;2023-02-11T11:27:53;98168.06;;;23.76;nan
34328;BME280;20588;48.840;10.064;2023-02-11T11:30:24;98168.91;;;24.23;nan
34328;BME280;20588;48.840;10.064;2023-02-11T11:32:52;98158.22;;;24.49;nan
34328;BME280;20588;48.840;10.064;2023-02-11T11:35:29;98155.78;;;24.28;nan
34328;BME280;20588;48.840;10.064;2023-02-11T11:38:00;98162.97;;;23.06;nan
34328;BME280;20588;48.840;10.064;2023-02-11T11:40:32;98166.75;;;22.45;nan
34328;BME280;20588;48.840;10.064;2023-02-11T11:45:51;98165.09;;;21.02;nan
34328;BME280;20588;48.840;10.064;2023-02-11T11:48:34;98156.22;;;20.01;nan
34328;BME280;20588;48.840;10.064;2023-02-11T11:51:05;98154.16;;;19.45;nan
34328;BME280;20588;48.840;10.064;2023-02-11T11:53:52;98149.22;;;19.25;nan
34328;BME280;20588;48.840;10.064;2023-02-11T11:56:26;98165.31;;;19.11;nan
34328;BME280;20588;48.840;10.064;2023-02-11T11:58:54;98165.59;;;18.91;nan
34328;BME280;20588;48.840;10.064;2023-02-11T12:01:28;98171.66;;;19.15;nan
34328;BME280;20588;48.840;10.064;2023-02-11T12:07:01;98159.59;;;19.43;nan
34328;BME280;20588;48.840;10.064;2023-02-11T12:15:16;98174.41;;;19.96;nan
34328;BME280;20588;48.840;10.064;2023-02-11T12:21:11;98174.97;;;20.32;nan
34328;BME280;20588;48.840;10.064;2023-02-11T12:24:03;98171.69;;;20.14;nan
34328;BME280;20588;48.840;10.064;2023-02-11T12:26:43;98165.53;;;19.50;nan
34328;BME280;20588;48.840;10.064;2023-02-11T12:29:20;98157.47;;;19.11;nan
34328;BME280;20588;48.840;10.064;2023-02-11T12:32:17;98159.16;;;18.76;nan
34328;BME280;20588;48.840;10.064;2023-02-11T12:35:04;98159.13;;;18.64;nan
34328;BME280;20588;48.840;10.064;2023-02-11T12:40:45;98151.88;;;18.12;nan
34328;BME280;20588;48.840;10.064;2023-02-11T12:43:34;98144.84;;;17.94;nan
34328;BME280;20588;48.840;10.064;2023-02-11T12:49:10;98138.00;;;17.75;nan
34328;BME280;20588;48.840;10.064;2023-02-11T12:57:18;98192.25;;;18.46;nan
34328;BME280;20588;48.840;10.064;2023-02-11T13:05:38;98139.50;;;16.78;nan
34328;BME280;20588;48.840;10.064;2023-02-11T13:08:18;98133.06;;;16.43;nan
34328;BME280;20588;48.840;10.064;2023-02-11T13:10:48;98134.72;;;16.24;nan
34328;BME280;20588;48.840;10.064;2023-02-11T13:13:29;98132.38;;;16.10;nan
34328;BME280;20588;48.840;10.064;2023-02-11T13:16:04;98130.59;;;16.04;nan
34328;BME280;20588;48.840;10.064;2023-02-11T13:18:42;98129.63;;;15.92;nan
34328;BME280;20588;48.840;10.064;2023-02-11T13:24:07;98123.78;;;16.09;nan
34328;BME280;20588;48.840;10.064;2023-02-11T13:29:22;98117.63;;;15.97;nan
34328;BME280;20588;48.840;10.064;2023-02-11T13:32:12;98123.44;;;15.86;nan
34328;BME280;20588;48.840;10.064;2023-02-11T13:37:25;98115.31;;;15.44;nan
34328;BME280;20588;48.840;10.064;2023-02-11T13:40:05;98115.09;;;15.26;nan
34328;BME280;20588;48.840;10.064;2023-02-11T13:42:33;98110.06;;;14.85;nan
34328;BME280;20588;48.840;10.064;2023-02-11T13:47:58;98104.00;;;14.45;nan
34328;BME280;20588;48.840;10.064;2023-02-11T13:50:25;98107.53;;;14.31;nan
34328;BME280;20588;48.840;10.064;2023-02-11T13:53:00;98108.84;;;14.14;nan
34328;BME280;20588;48.840;10.064;2023-02-11T13:55:27;98119.13;;;14.01;nan
34328;BME280;20588;48.840;10.064;2023-02-11T14:00:44;98116.38;;;13.75;nan
34328;BME280;20588;48.840;10.064;2023-02-11T14:14:24;98115.88;;;12.89;nan
34328;BME280;20588;48.840;10.064;2023-02-11T14:17:16;98114.09;;;12.68;nan
34328;BME280;20588;48.840;10.064;2023-02-11T14:19:45;98117.59;;;12.61;nan
34328;BME280;20588;48.840;10.064;2023-02-11T14:24:58;98127.53;;;12.28;nan
34328;BME280;20588;48.840;10.064;2023-02-11T14:27:43;98117.50;;;12.04;nan
34328;BME280;20588;48.840;10.064;2023-02-11T14:33:05;98118.59;;;11.81;nan
34328;BME280;20588;48.840;10.064;2023-02-11T14:41:30;98120.63;;;11.48;nan
34328;BME280;20588;48.840;10.064;2023-02-11T14:43:59;98120.72;;;11.40;nan
34328;BME280;20588;48.840;10.064;2023-02-11T14:46:27;98120.06;;;11.24;nan
34328;BME280;20588;48.840;10.064;2023-02-11T14:48:59;98119.31;;;11.15;nan
34328;BME280;20588;48.840;10.064;2023-02-11T14:51:29;98123.63;;;11.00;nan
34328;BME280;20588;48.840;10.064;2023-02-11T14:54:23;98121.91;;;10.92;nan
34328;BME280;20588;48.840;10.064;2023-02-11T14:57:17;98124.31;;;10.71;nan
34328;BME280;20588;48.840;10.064;2023-02-11T14:59:59;98135.84;;;10.53;nan
34328;BME280;20588;48.840;10.064;2023-02-11T15:02:34;98135.25;;;10.43;nan
34328;BME280;20588;48.840;10.064;2023-02-11T15:05:20;98139.19;;;10.31;nan
34328;BME280;20588;48.840;10.064;2023-02-11T15:07:52;98135.53;;;10.17;nan
34328;BME280;20588;48.840;10.064;2023-02-11T15:10:32;98144.69;;;10.20;nan
34328;BME280;20588;48.840;10.064;2023-02-11T15:13:01;98149.53;;;10.15;nan
34328;BME280;20588;48.840;10.064;2023-02-11T15:15:28;98146.34;;;10.13;nan
34328;BME280;20588;48.840;10.064;2023-02-11T15:17:59;98148.09;;;10.12;nan
34328;BME280;20588;48.840;10.064;2023-02-11T15:20:28;98154.38;;;10.10;nan
34328;BME280;20588;48.840;10.064;2023-02-11T15:23:03;98148.56;;;10.00;nan
34328;BME280;20588;48.840;10.064;2023-02-11T15:25:30;98156.00;;;9.95;nan
34328;BME280;20588;48.840;10.064;2023-02-11T15:27:57;98157.91;;;10.01;nan
34328;BME280;20588;48.840;10.064;2023-02-11T15:30:30;98161.44;;;10.00;nan
34328;BME280;20588;48.840;10.064;2023-02-11T15:33:01;98149.38;;;10.00;nan
34328;BME280;20588;48.840;10.064;2023-02-11T15:35:34;98155.34;;;10.01;nan
34328;BME280;20588;48.840;10.064;2023-02-11T15:38:02;98161.44;;;10.00;nan
34328;BME280;20588;48.840;10.064;2023-02-11T15:40:34;98158.56;;;9.95;nan
34328;BME280;20588;48.840;10.064;2023-02-11T15:43:06;98161.81;;;9.89;nan
34328;BME280;20588;48.840;10.064;2023-02-11T15:48:45;98170.03;;;9.76;nan
34328;BME280;20588;48.840;10.064;2023-02-11T15:51:21;98166.34;;;9.63;nan